createdAt,value
2018-12-21T00:00:52.112Z,5.33
2018-12-21T00:03:21.327Z,3.80
2018-12-21T00:05:50.261Z,0.93
2018-12-21T00:08:19.182Z,1.50
2018-12-21T00:10:48.339Z,2.43
2018-12-21T00:13:17.266Z,1.80
2018-12-21T00:15:46.354Z,0.80
2018-12-21T00:18:15.442Z,0.40
2018-12-21T00:20:44.445Z,1.30
2018-12-21T00:23:13.474Z,1.07
2018-12-21T00:25:42.473Z,1.60
2018-12-21T00:28:11.257Z,0.90
2018-12-21T00:30:39.360Z,0.83
2018-12-21T00:33:13.469Z,0.40
2018-12-21T00:35:47.685Z,4.87
2018-12-21T00:38:21.850Z,0.83
2018-12-21T00:40:56.048Z,0.47
2018-12-21T00:43:30.306Z,0.37
2018-12-21T00:46:03.749Z,0.83
2018-12-21T00:48:32.663Z,0.40
2018-12-21T00:51:01.660Z,0.97
2018-12-21T00:53:30.789Z,0.47
2018-12-21T00:55:59.934Z,0.63
2018-12-21T00:58:29.201Z,0.23
2018-12-21T01:00:58.312Z,1.40
2018-12-21T01:03:27.242Z,0.20
2018-12-21T01:05:56.238Z,2.83
2018-12-21T01:08:25.430Z,0.37
2018-12-21T01:10:54.826Z,1.53
2018-12-21T01:13:24.006Z,0.37
2018-12-21T01:15:54.426Z,1.00
2018-12-21T01:18:24.060Z,1.03
2018-12-21T01:20:52.892Z,0.97
2018-12-21T01:23:21.953Z,0.30
2018-12-21T01:25:53.028Z,0.20
2018-12-21T01:28:22.172Z,0.50
2018-12-21T01:30:50.954Z,0.40
2018-12-21T01:33:19.950Z,2.33
2018-12-21T01:35:49.014Z,0.30
2018-12-21T01:38:17.934Z,1.07
2018-12-21T01:40:47.085Z,1.20
2018-12-21T01:43:16.145Z,0.30
2018-12-21T01:45:45.239Z,0.60
2018-12-21T01:48:14.219Z,1.97
2018-12-21T01:50:43.133Z,1.70
2018-12-21T01:53:12.221Z,2.83
2018-12-21T01:55:41.206Z,0.53
2018-12-21T01:58:10.173Z,1.90
2018-12-21T02:00:39.122Z,0.30
2018-12-21T02:03:08.132Z,2.00
2018-12-21T02:05:37.188Z,1.13
2018-12-21T02:08:06.366Z,1.03
2018-12-21T02:10:35.364Z,0.93
2018-12-21T02:13:04.576Z,0.57
2018-12-21T02:15:33.552Z,1.13
2018-12-21T02:18:02.356Z,1.50
2018-12-21T02:20:31.552Z,1.90
2018-12-21T02:23:00.535Z,0.43
2018-12-21T02:25:29.526Z,1.43
2018-12-21T02:27:58.639Z,0.53
2018-12-21T02:30:27.619Z,0.37
2018-12-21T02:32:56.597Z,1.43
2018-12-21T02:35:25.629Z,0.67
2018-12-21T02:37:54.789Z,0.20
2018-12-21T02:40:23.787Z,0.80
2018-12-21T02:42:52.835Z,0.77
2018-12-21T02:45:21.881Z,1.43
2018-12-21T02:47:50.799Z,1.53
2018-12-21T02:50:19.903Z,1.83
2018-12-21T02:52:48.916Z,1.80
2018-12-21T02:55:17.959Z,0.77
2018-12-21T02:57:46.847Z,0.93
2018-12-21T03:00:15.841Z,2.47
2018-12-21T03:02:44.812Z,1.13
2018-12-21T03:05:14.216Z,0.17
2018-12-21T03:07:43.273Z,1.70
2018-12-21T03:10:12.372Z,2.57
2018-12-21T03:12:41.331Z,0.40
2018-12-21T03:15:10.415Z,0.30
2018-12-21T03:17:39.308Z,1.73
2018-12-21T03:20:08.959Z,0.37
2018-12-21T03:22:37.936Z,2.40
2018-12-21T03:25:07.016Z,2.47
2018-12-21T03:27:35.908Z,2.07
2018-12-21T03:30:05.453Z,1.43
2018-12-21T03:32:34.499Z,3.72
2018-12-21T03:35:03.715Z,3.90
2018-12-21T03:37:32.724Z,4.53
2018-12-21T03:40:01.784Z,2.13
2018-12-21T03:42:30.688Z,1.20
2018-12-21T03:44:59.735Z,3.20
2018-12-21T03:47:28.863Z,3.10
2018-12-21T03:49:57.775Z,2.63
2018-12-21T03:52:26.814Z,1.10
2018-12-21T03:54:55.676Z,2.57
2018-12-21T03:57:24.634Z,1.00
2018-12-21T03:59:53.554Z,0.67
2018-12-21T04:02:22.543Z,2.17
2018-12-21T04:04:51.500Z,2.57
2018-12-21T04:07:20.471Z,0.67
2018-12-21T04:09:49.397Z,0.27
2018-12-21T04:12:18.328Z,3.10
2018-12-21T04:14:47.373Z,0.53
2018-12-21T04:17:16.375Z,1.30
2018-12-21T04:19:45.280Z,2.90
2018-12-21T04:22:14.212Z,0.63
2018-12-21T04:24:43.157Z,1.80
2018-12-21T04:27:12.148Z,0.20
2018-12-21T04:29:41.049Z,0.20
2018-12-21T04:32:09.953Z,1.40
2018-12-21T04:34:39.077Z,0.77
2018-12-21T04:37:08.041Z,0.10
2018-12-21T04:39:36.995Z,0.73
2018-12-21T04:42:05.937Z,0.77
2018-12-21T04:44:34.907Z,0.10
2018-12-21T04:47:03.791Z,1.40
2018-12-21T04:49:32.682Z,1.20
2018-12-21T04:52:01.593Z,0.17
2018-12-21T04:54:30.569Z,0.70
2018-12-21T04:56:59.675Z,0.10
2018-12-21T04:59:28.674Z,0.20
2018-12-21T05:01:57.673Z,0.20
2018-12-21T05:04:26.651Z,0.53
2018-12-21T05:06:55.619Z,0.20
2018-12-21T05:09:24.690Z,2.53
2018-12-21T05:11:53.662Z,1.60
2018-12-21T05:14:22.641Z,0.20
2018-12-21T05:16:51.858Z,2.50
2018-12-21T05:19:20.937Z,2.07
2018-12-21T05:21:49.988Z,0.10
2018-12-21T05:24:19.368Z,0.20
2018-12-21T05:26:48.513Z,1.50
2018-12-21T05:29:17.432Z,0.63
2018-12-21T05:31:46.416Z,1.03
2018-12-21T05:34:15.417Z,0.20
2018-12-21T05:36:44.384Z,0.43
2018-12-21T05:39:13.416Z,4.37
2018-12-21T05:41:42.384Z,0.87
2018-12-21T05:44:11.402Z,2.77
2018-12-21T05:46:40.377Z,0.30
2018-12-21T05:49:09.348Z,1.07
2018-12-21T05:51:38.245Z,0.20
2018-12-21T05:54:07.248Z,1.33
2018-12-21T05:56:36.203Z,2.72
2018-12-21T05:59:05.232Z,1.93
2018-12-21T06:01:34.219Z,4.13
2018-12-21T06:04:03.218Z,4.40
2018-12-21T06:06:32.522Z,5.33
2018-12-21T06:09:01.619Z,2.73
2018-12-21T06:11:30.723Z,1.27
2018-12-21T06:14:01.057Z,4.70
2018-12-21T06:16:30.227Z,2.83
2018-12-21T06:18:59.321Z,4.10
2018-12-21T06:21:28.837Z,3.63
2018-12-21T06:23:57.819Z,6.23
2018-12-21T06:26:26.712Z,7.00
2018-12-21T06:28:55.847Z,4.07
2018-12-21T06:31:25.017Z,4.90
2018-12-21T06:33:54.017Z,4.47
2018-12-21T06:36:23.077Z,5.30
2018-12-21T06:38:52.072Z,2.45
2018-12-21T06:41:20.979Z,8.43
2018-12-21T06:43:49.997Z,5.08
2018-12-21T06:46:19.003Z,5.62
2018-12-21T06:48:47.952Z,2.93
2018-12-21T06:51:17.164Z,3.13
2018-12-21T06:53:46.151Z,5.00
2018-12-21T06:56:15.047Z,3.23
2018-12-21T06:58:44.163Z,3.80
2018-12-21T07:01:13.154Z,3.47
2018-12-21T07:03:42.128Z,2.67
2018-12-21T07:06:10.995Z,3.27
2018-12-21T07:08:40.009Z,4.30
2018-12-21T07:11:09.026Z,6.50
2018-12-21T07:13:38.134Z,1.83
2018-12-21T07:16:07.125Z,5.37
2018-12-21T07:18:36.161Z,1.20
2018-12-21T07:21:05.144Z,5.07
2018-12-21T07:23:34.060Z,4.63
2018-12-21T07:26:03.060Z,5.15
2018-12-21T07:28:32.163Z,6.70
2018-12-21T07:31:01.443Z,3.70
2018-12-21T07:33:30.353Z,5.65
2018-12-21T07:36:08.127Z,2.07
2018-12-21T07:38:30.445Z,2.98
2018-12-21T07:40:59.379Z,5.05
2018-12-21T07:43:28.384Z,1.12
2018-12-21T07:45:57.528Z,2.27
2018-12-21T07:48:26.560Z,4.87
2018-12-21T07:50:55.682Z,1.95
2018-12-21T07:53:24.656Z,0.80
2018-12-21T07:55:53.817Z,3.12
2018-12-21T07:58:22.676Z,3.27
2018-12-21T08:00:51.632Z,1.65
2018-12-21T08:03:23.264Z,2.55
2018-12-21T08:05:52.603Z,0.42
2018-12-21T08:08:21.977Z,1.15
2018-12-21T08:10:51.837Z,2.37
2018-12-21T08:13:20.984Z,3.80
2018-12-21T08:15:50.423Z,4.00
2018-12-21T08:18:19.422Z,3.77
2018-12-21T08:20:49.126Z,4.30
2018-12-21T08:23:18.141Z,4.47
2018-12-21T08:25:47.145Z,4.22
2018-12-21T08:28:16.109Z,3.58
2018-12-21T08:30:45.310Z,5.28
2018-12-21T08:33:14.311Z,4.47
2018-12-21T08:35:43.264Z,3.83
2018-12-21T08:38:12.177Z,4.35
2018-12-21T08:40:41.070Z,3.98
2018-12-21T08:43:10.144Z,5.80
2018-12-21T08:45:39.082Z,3.05
2018-12-21T08:48:08.027Z,2.15
2018-12-21T08:50:36.963Z,3.95
2018-12-21T08:53:06.043Z,5.22
2018-12-21T08:55:35.029Z,2.75
2018-12-21T08:58:04.207Z,3.15
2018-12-21T09:00:33.231Z,1.85
2018-12-21T09:03:02.248Z,1.72
2018-12-21T09:05:31.229Z,2.70
2018-12-21T09:08:00.416Z,5.42
2018-12-21T09:10:29.389Z,1.47
2018-12-21T09:12:58.382Z,1.95
2018-12-21T09:15:27.381Z,4.77
2018-12-21T09:17:56.385Z,4.12
2018-12-21T09:20:25.499Z,2.12
2018-12-21T09:22:54.544Z,8.23
2018-12-21T09:25:23.584Z,7.20
2018-12-21T09:27:52.654Z,4.22
2018-12-21T09:30:21.643Z,10.27
2018-12-21T09:32:50.677Z,6.73
2018-12-21T09:35:19.615Z,3.12
2018-12-21T09:37:48.445Z,8.47
2018-12-21T09:40:17.640Z,9.40
2018-12-21T09:42:46.624Z,10.53
2018-12-21T09:45:15.610Z,10.32
2018-12-21T09:47:44.618Z,10.68
2018-12-21T09:50:13.696Z,4.47
2018-12-21T09:52:42.694Z,17.53
2018-12-21T09:55:11.800Z,12.10
2018-12-21T09:57:40.802Z,22.50
2018-12-21T10:00:11.707Z,13.23
2018-12-21T10:02:41.441Z,27.80
2018-12-21T10:05:14.491Z,19.53
2018-12-21T10:07:43.795Z,28.83
2018-12-21T10:10:12.915Z,23.83
2018-12-21T10:12:41.915Z,20.53
2018-12-21T10:15:11.103Z,32.20
2018-12-21T10:17:40.008Z,27.97
2018-12-21T10:20:09.696Z,28.77
2018-12-21T10:22:38.589Z,27.47
2018-12-21T10:25:07.875Z,36.20
2018-12-21T10:27:36.776Z,35.15
2018-12-21T10:30:07.767Z,44.47
2018-12-21T10:32:36.855Z,31.87
2018-12-21T10:35:06.109Z,32.80
2018-12-21T10:37:34.887Z,28.70
2018-12-21T10:40:04.149Z,34.33
2018-12-21T10:42:33.429Z,39.43
2018-12-21T10:45:02.534Z,38.25
2018-12-21T10:47:31.563Z,36.00
2018-12-21T10:50:00.604Z,41.20
2018-12-21T10:52:29.634Z,33.10
2018-12-21T10:54:58.591Z,40.83
2018-12-21T10:57:27.463Z,29.77
2018-12-21T10:59:56.582Z,46.97
2018-12-21T11:02:25.562Z,38.33
2018-12-21T11:04:54.626Z,38.27
2018-12-21T11:07:23.697Z,45.23
2018-12-21T11:09:52.784Z,33.80
2018-12-21T11:12:21.744Z,35.67
2018-12-21T11:14:50.681Z,33.10
2018-12-21T11:17:19.949Z,35.67
2018-12-21T11:19:48.935Z,33.87
2018-12-21T11:22:17.902Z,38.13
2018-12-21T11:24:46.811Z,37.10
2018-12-21T11:27:15.821Z,37.80
2018-12-21T11:29:45.089Z,50.53
2018-12-21T11:32:13.998Z,36.60
2018-12-21T11:34:43.041Z,32.50
2018-12-21T11:37:12.100Z,51.30
2018-12-21T11:39:41.129Z,42.30
2018-12-21T11:42:10.179Z,36.77
2018-12-21T11:44:39.275Z,38.00
2018-12-21T11:47:08.305Z,44.93
2018-12-21T11:49:37.371Z,44.93
2018-12-21T11:52:06.382Z,31.80
2018-12-21T11:54:43.877Z,42.77
2018-12-21T11:57:06.302Z,47.33
2018-12-21T11:59:35.528Z,56.27
2018-12-21T12:02:04.595Z,48.17
2018-12-21T12:04:33.713Z,44.00
2018-12-21T12:07:02.673Z,47.00
2018-12-21T12:09:31.687Z,51.37
2018-12-21T12:12:00.667Z,39.10
2018-12-21T12:14:29.549Z,54.07
2018-12-21T12:16:58.862Z,50.53
2018-12-21T12:19:27.942Z,37.07
2018-12-21T12:21:56.950Z,55.33
2018-12-21T12:24:25.928Z,46.57
2018-12-21T12:26:54.943Z,43.73
2018-12-21T12:29:23.952Z,48.13
2018-12-21T12:31:52.927Z,53.47
2018-12-21T12:34:21.921Z,41.83
2018-12-21T12:36:50.964Z,41.40
2018-12-21T12:39:19.888Z,39.57
2018-12-21T12:41:48.884Z,44.90
2018-12-21T12:44:18.080Z,38.70
2018-12-21T12:46:47.224Z,35.73
2018-12-21T12:49:16.295Z,50.77
2018-12-21T12:51:45.296Z,36.00
2018-12-21T12:54:14.394Z,41.33
2018-12-21T12:56:43.359Z,29.90
2018-12-21T12:59:12.435Z,36.03
2018-12-21T13:01:41.444Z,40.77
2018-12-21T13:04:10.366Z,43.27
2018-12-21T13:06:39.319Z,35.87
2018-12-21T13:09:08.585Z,44.90
2018-12-21T13:11:38.117Z,40.60
2018-12-21T13:14:07.257Z,29.60
2018-12-21T13:16:36.348Z,54.23
2018-12-21T13:19:05.563Z,41.17
2018-12-21T13:21:34.533Z,34.33
2018-12-21T13:24:03.705Z,41.70
2018-12-21T13:26:32.524Z,34.10
2018-12-21T13:29:01.630Z,36.20
2018-12-21T13:31:30.729Z,65.07
2018-12-21T13:33:59.809Z,48.10
2018-12-21T13:36:28.834Z,46.50
2018-12-21T13:38:57.796Z,39.60
2018-12-21T13:41:26.771Z,55.47
2018-12-21T13:43:55.886Z,42.97
2018-12-21T13:46:24.964Z,55.73
2018-12-21T13:48:53.959Z,33.83
2018-12-21T13:51:22.852Z,46.20
2018-12-21T13:53:52.092Z,41.40
2018-12-21T13:56:21.033Z,34.53
2018-12-21T13:58:50.085Z,42.70
2018-12-21T14:01:19.025Z,44.40
2018-12-21T14:03:48.039Z,35.98
2018-12-21T14:06:17.088Z,34.43
2018-12-21T14:08:46.061Z,31.93
2018-12-21T14:11:15.013Z,41.87
2018-12-21T14:13:44.147Z,33.90
2018-12-21T14:16:13.189Z,32.93
2018-12-21T14:18:42.093Z,33.77
2018-12-21T14:21:11.181Z,29.50
2018-12-21T14:23:40.081Z,31.37
2018-12-21T14:26:09.168Z,42.27
2018-12-21T14:28:38.152Z,30.80
2018-12-21T14:31:07.519Z,37.47
2018-12-21T14:33:36.668Z,34.87
2018-12-21T14:36:05.737Z,41.43
2018-12-21T14:38:34.755Z,30.70
2018-12-21T14:41:03.769Z,32.50
2018-12-21T14:43:32.758Z,31.00
2018-12-21T14:46:01.841Z,31.77
2018-12-21T14:48:30.848Z,42.33
2018-12-21T14:50:59.831Z,38.63
2018-12-21T14:53:28.817Z,38.97
2018-12-21T14:55:57.719Z,37.87
2018-12-21T14:58:26.712Z,36.83
2018-12-21T15:00:55.720Z,34.58
2018-12-21T15:03:24.681Z,31.00
2018-12-21T15:05:53.719Z,39.10
2018-12-21T15:08:22.776Z,36.13
2018-12-21T15:10:51.797Z,39.53
2018-12-21T15:13:20.877Z,43.33
2018-12-21T15:15:49.905Z,44.23
2018-12-21T15:18:18.954Z,30.03
2018-12-21T15:20:47.844Z,38.93
2018-12-21T15:23:17.020Z,28.90
2018-12-21T15:25:46.395Z,43.98
2018-12-21T15:28:15.682Z,35.87
2018-12-21T15:30:44.661Z,37.20
2018-12-21T15:33:13.767Z,34.07
2018-12-21T15:35:42.900Z,44.17
2018-12-21T15:38:11.972Z,36.53
2018-12-21T15:40:40.998Z,36.53
2018-12-21T15:43:09.957Z,34.93
2018-12-21T15:45:39.021Z,38.97
2018-12-21T15:48:08.114Z,39.00
2018-12-21T15:50:37.126Z,40.40
2018-12-21T15:53:06.144Z,37.00
2018-12-21T15:55:35.208Z,38.00
2018-12-21T15:58:04.207Z,31.57
2018-12-21T16:00:33.311Z,34.45
2018-12-21T16:03:03.444Z,33.40
2018-12-21T16:05:32.424Z,42.43
2018-12-21T16:08:01.386Z,41.97
2018-12-21T16:10:30.273Z,43.47
2018-12-21T16:12:59.170Z,45.43
2018-12-21T16:15:28.395Z,38.77
2018-12-21T16:17:57.487Z,38.10
2018-12-21T16:20:26.597Z,36.63
2018-12-21T16:22:55.559Z,36.38
2018-12-21T16:25:24.665Z,37.60
2018-12-21T16:27:53.650Z,31.30
2018-12-21T16:30:22.634Z,47.55
2018-12-21T16:32:51.654Z,41.10
2018-12-21T16:35:20.719Z,32.37
2018-12-21T16:37:49.857Z,41.90
2018-12-21T16:40:18.918Z,39.83
2018-12-21T16:42:48.052Z,40.25
2018-12-21T16:45:17.002Z,43.07
2018-12-21T16:47:46.119Z,38.90
2018-12-21T16:50:15.247Z,39.10
2018-12-21T16:52:44.285Z,49.20
2018-12-21T16:55:13.371Z,45.63
2018-12-21T16:57:42.452Z,40.00
2018-12-21T17:00:14.078Z,39.17
2018-12-21T17:02:43.176Z,44.67
2018-12-21T17:05:12.185Z,42.83
2018-12-21T17:07:41.212Z,38.70
2018-12-21T17:10:18.813Z,36.07
2018-12-21T17:12:47.960Z,45.03
2018-12-21T17:15:16.899Z,34.40
2018-12-21T17:17:45.926Z,44.50
2018-12-21T17:20:15.130Z,48.37
2018-12-21T17:22:44.119Z,42.03
2018-12-21T17:25:14.416Z,44.13
2018-12-21T17:27:43.617Z,44.70
2018-12-21T17:30:13.319Z,35.33
2018-12-21T17:32:42.207Z,35.23
2018-12-21T17:35:11.210Z,35.27
2018-12-21T17:37:40.602Z,46.93
2018-12-21T17:40:11.155Z,28.93
2018-12-21T17:42:40.175Z,48.67
2018-12-21T17:45:11.390Z,37.73
2018-12-21T17:47:40.512Z,43.78
2018-12-21T17:50:10.717Z,44.05
2018-12-21T17:52:39.887Z,40.93
2018-12-21T17:55:09.737Z,53.53
2018-12-21T17:57:38.921Z,32.50
2018-12-21T18:00:13.475Z,40.67
2018-12-21T18:02:43.050Z,44.87
2018-12-21T18:05:12.082Z,41.93
2018-12-21T18:07:41.034Z,34.63
2018-12-21T18:10:11.158Z,48.30
2018-12-21T18:12:40.161Z,55.47
2018-12-21T18:15:10.290Z,41.13
2018-12-21T18:17:39.274Z,43.00
2018-12-21T18:20:11.162Z,37.27
2018-12-21T18:22:40.358Z,43.53
2018-12-21T18:25:16.379Z,41.97
2018-12-21T18:27:47.855Z,47.27
2018-12-21T18:30:21.535Z,37.97
2018-12-21T18:32:50.430Z,36.77
2018-12-21T18:35:20.040Z,30.93
2018-12-21T18:37:56.754Z,43.40
2018-12-21T18:40:25.987Z,47.53
2018-12-21T18:42:55.000Z,43.50
2018-12-21T18:45:24.016Z,40.17
2018-12-21T18:47:53.076Z,41.33
2018-12-21T18:50:22.481Z,33.93
2018-12-21T18:52:51.490Z,46.67
2018-12-21T18:55:20.672Z,39.97
2018-12-21T18:57:49.867Z,40.43
2018-12-21T19:00:18.853Z,39.67
2018-12-21T19:02:47.875Z,44.00
2018-12-21T19:05:16.863Z,42.80
2018-12-21T19:07:45.849Z,38.42
2018-12-21T19:10:14.997Z,44.87
2018-12-21T19:12:43.935Z,39.00
2018-12-21T19:15:13.043Z,36.17
2018-12-21T19:17:42.167Z,53.10
2018-12-21T19:20:12.466Z,48.30
2018-12-21T19:22:41.564Z,42.17
2018-12-21T19:25:11.805Z,34.93
2018-12-21T19:27:40.918Z,46.97
2018-12-21T19:30:11.715Z,46.40
2018-12-21T19:32:42.223Z,47.60
2018-12-21T19:35:12.283Z,41.07
2018-12-21T19:37:41.370Z,43.23
2018-12-21T19:40:11.288Z,32.93
2018-12-21T19:42:40.888Z,37.43
2018-12-21T19:45:12.835Z,38.00
2018-12-21T19:47:43.004Z,39.17
2018-12-21T19:50:12.497Z,49.27
2018-12-21T19:52:41.371Z,37.93
2018-12-21T19:57:24.605Z,38.53
2018-12-21T19:59:53.795Z,39.23
2018-12-21T20:02:22.896Z,42.33
2018-12-21T20:04:51.979Z,36.47
2018-12-21T20:07:20.918Z,27.97
2018-12-21T20:09:49.990Z,32.00
2018-12-21T20:12:18.997Z,37.20
2018-12-21T20:14:48.168Z,41.13
2018-12-21T20:17:17.366Z,40.13
2018-12-21T20:19:46.443Z,42.17
2018-12-21T20:22:15.561Z,26.97
2018-12-21T20:24:44.776Z,36.00
2018-12-21T20:27:15.596Z,32.70
2018-12-21T20:29:45.395Z,32.07
2018-12-21T20:32:14.711Z,39.33
2018-12-21T20:34:44.176Z,35.87
2018-12-21T20:37:13.103Z,27.80
2018-12-21T20:39:44.781Z,34.90
2018-12-21T20:42:13.857Z,33.27
2018-12-21T20:44:42.988Z,38.47
2018-12-21T20:47:12.226Z,40.53
2018-12-21T20:49:41.383Z,37.13
2018-12-21T20:52:10.637Z,39.00
2018-12-21T20:54:39.648Z,28.93
2018-12-21T20:57:11.250Z,43.83
2018-12-21T20:59:40.731Z,55.77
2018-12-21T21:02:09.903Z,44.37
2018-12-21T21:04:38.915Z,35.20
2018-12-21T21:07:08.075Z,35.17
2018-12-21T21:09:37.200Z,36.13
2018-12-21T21:12:06.309Z,44.00
2018-12-21T21:14:35.284Z,43.97
2018-12-21T21:17:04.369Z,49.40
2018-12-21T21:19:36.671Z,43.27
2018-12-21T21:22:05.982Z,37.60
2018-12-21T21:24:34.937Z,44.90
2018-12-21T21:27:04.178Z,50.70
2018-12-21T21:29:33.124Z,52.80
2018-12-21T21:32:02.221Z,45.93
2018-12-21T21:34:31.313Z,29.80
2018-12-21T21:37:00.293Z,40.07
2018-12-21T21:39:29.229Z,53.73
2018-12-21T21:41:58.194Z,45.60
2018-12-21T21:44:27.217Z,39.83
2018-12-21T21:46:56.183Z,45.90
2018-12-21T21:49:25.295Z,51.83
2018-12-21T21:51:54.378Z,33.03
2018-12-21T21:54:23.485Z,53.00
2018-12-21T21:56:52.497Z,44.87
2018-12-21T21:59:21.592Z,44.70
2018-12-21T22:01:50.681Z,39.83
2018-12-21T22:04:19.661Z,36.67
2018-12-21T22:06:48.552Z,42.40
2018-12-21T22:09:17.430Z,44.43
2018-12-21T22:11:46.622Z,41.70
2018-12-21T22:14:15.633Z,43.33
2018-12-21T22:16:44.616Z,39.93
2018-12-21T22:19:13.614Z,44.37
2018-12-21T22:21:42.740Z,38.83
2018-12-21T22:24:11.868Z,40.37
2018-12-21T22:26:40.889Z,31.80
2018-12-21T22:29:10.197Z,36.67
2018-12-21T22:31:40.359Z,44.40
2018-12-21T22:34:09.313Z,38.50
2018-12-21T22:36:38.311Z,32.50
2018-12-21T22:39:07.510Z,32.70
2018-12-21T22:41:36.564Z,38.03
2018-12-21T22:44:05.698Z,36.93
2018-12-21T22:46:34.735Z,39.50
2018-12-21T22:49:03.863Z,24.20
2018-12-21T22:51:32.768Z,33.60
2018-12-21T22:54:01.863Z,40.80
2018-12-21T22:56:30.836Z,28.07
2018-12-21T22:58:59.839Z,26.00
2018-12-21T23:01:29.246Z,28.77
2018-12-21T23:03:58.265Z,24.50
2018-12-21T23:06:27.371Z,22.93
2018-12-21T23:08:56.536Z,30.63
2018-12-21T23:11:25.578Z,27.30
2018-12-21T23:13:54.775Z,29.07
2018-12-21T23:16:23.840Z,33.90
2018-12-21T23:18:52.839Z,22.93
2018-12-21T23:21:21.857Z,32.00
2018-12-21T23:23:50.925Z,24.13
2018-12-21T23:26:19.901Z,27.13
2018-12-21T23:28:48.988Z,33.40
2018-12-21T23:31:17.920Z,24.67
2018-12-21T23:33:46.987Z,24.23
2018-12-21T23:36:16.102Z,19.13
2018-12-21T23:38:45.098Z,29.83
2018-12-21T23:41:14.189Z,20.83
2018-12-21T23:43:43.459Z,22.83
2018-12-21T23:46:12.512Z,29.73
2018-12-21T23:48:41.660Z,21.60
2018-12-21T23:51:10.764Z,21.03
2018-12-21T23:53:39.787Z,20.33
2018-12-21T23:56:12.035Z,21.63
2018-12-21T23:58:39.889Z,25.83
